Flight Track Log - Related Links

Times and Time Zones

All times are in EDT time to prevent confusion due to time zone crossing. See the DAL268 flight status page for this flight to view local times or setup timezone preferences in your user account.

Time Position Orientation Groundspeed Altitude Reporting Facility
EDT Latitude Longitude Course Direction KTS MPH feet Rate Location/Type
Mon 12:46:34 AM 40.6260 -73.7720 201° Southwest 130 150  Level FlightAware ADS-B
Mon 12:47:01 AM 40.6090 -73.7850 210° Southwest 172 198 400 1,286 Climbing FlightAware ADS-B
Mon 12:47:30 AM 40.5890 -73.8010 211° Southwest 181 208 1,200 1,395 Climbing FlightAware ADS-B
Mon 12:47:44 AM 40.5760 -73.8030 187° South 197 227 1,400 1,000 Climbing FlightAware ADS-B
Mon 12:48:00 AM 40.5620 -73.7940 154° Southeast 219 252 1,700 1,071 Climbing FlightAware ADS-B
Mon 12:48:12 AM 40.5550 -73.7810 125° Southeast 231 266 1,900 857 Climbing FlightAware ADS-B
Mon 12:48:28 AM 40.5520 -73.7580 100° East 248 285 2,100 783 Climbing FlightAware ADS-B
Mon 12:48:35 AM 40.5540 -73.7480 75° East 254 292 2,200 1,200 Climbing FlightAware ADS-B
Mon 12:48:48 AM 40.5590 -73.7290 71° East 265 305 2,500 1,317 Climbing FlightAware ADS-B
Mon 12:49:16 AM 40.5740 -73.6850 66° East 287 330 3,100 1,500 Climbing FlightAware ADS-B
Mon 12:49:44 AM 40.5870 -73.6390 70° East 293 337 3,900 1,800 Climbing FlightAware ADS-B
Mon 12:49:56 AM 40.5860 -73.6180 94° East 291 335 4,300 1,929 Climbing FlightAware ADS-B
Mon 12:50:12 AM 40.5790 -73.5920 110° East 292 336 4,800 2,100 Climbing FlightAware ADS-B
Mon 12:50:36 AM 40.5660 -73.5520 113° Southeast 296 341 5,700 2,250 Climbing FlightAware ADS-B
Mon 12:50:52 AM 40.5565 -73.5248 115° Southeast 299 344 6,300 2,129 Climbing FlightAware ADS-B
Mon 12:51:07 AM 40.5480 -73.4998 114° Southeast 301 346 6,800 2,000 Climbing FlightAware ADS-B
Mon 12:51:22 AM 40.5394 -73.4746 114° Southeast 304 350 7,300 2,000 Climbing FlightAware ADS-B
Mon 12:51:37 AM 40.5307 -73.4484 114° Southeast 308 354 7,800 1,875 Climbing FlightAware ADS-B
Mon 12:51:54 AM 40.5209 -73.4199 114° Southeast 313 360 8,300 1,941 Climbing FlightAware ADS-B
Mon 12:52:11 AM 40.5111 -73.3909 114° Southeast 316 364 8,900 2,000 Climbing FlightAware ADS-B
Mon 12:52:27 AM 40.5016 -73.3622 114° Southeast 318 366 9,400 2,063 Climbing FlightAware ADS-B
Mon 12:52:43 AM 40.4922 -73.3339 114° Southeast 320 368 10,000 1,565 Climbing FlightAware ADS-B
Mon 12:53:13 AM 40.4735 -73.2783 114° Southeast 341 392 10,600 1,250 Climbing FlightAware ADS-B
Mon 12:53:31 AM 40.4618 -73.2435 114° Southeast 354 407 11,000 1,111 Climbing FlightAware ADS-B
Mon 12:53:40 AM 40.4569 -73.2245 109° East 364 419 11,100 1,059 Climbing FlightAware ADS-B
Mon 12:53:48 AM 40.4544 -73.2061 100° East 373 429 11,300 1,286 Climbing FlightAware ADS-B
Mon 12:53:54 AM 40.4539 -73.1941 93° East 378 435 11,400 947 Climbing FlightAware ADS-B
Mon 12:54:07 AM 40.4556 -73.1630 86° East 392 451 11,600 1,091 Climbing FlightAware ADS-B
Mon 12:54:16 AM 40.4597 -73.1419 76° East 401 461 11,800 1,059 Climbing FlightAware ADS-B
Mon 12:54:24 AM 40.4651 -73.1235 69° East 409 471 11,900 857 Climbing FlightAware ADS-B
Mon 12:54:30 AM 40.4704 -73.1107 61° Northeast 414 476 12,000 1,200 Climbing FlightAware ADS-B
Mon 12:54:34 AM 40.4748 -73.1021 56° Northeast 418 481 12,100 857 Climbing FlightAware ADS-B
Mon 12:54:37 AM 40.4783 -73.0958 54° Northeast 420 483 12,100 1,385 Level FlightAware ADS-B
Mon 12:54:47 AM 40.4916 -73.0764 48° Northeast 427 491 12,400 1,895 Climbing FlightAware ADS-B
Mon 12:55:15 AM 40.5332 -73.0265 42° Northeast 436 502 13,300 1,950 Climbing FlightAware ADS-B
Mon 12:55:27 AM 40.5496 -73.0050 45° Northeast 438 504 13,700 2,077 Climbing FlightAware ADS-B
Mon 12:55:41 AM 40.5686 -72.9768 48° Northeast 441 507 14,200 2,045 Climbing FlightAware ADS-B
Mon 12:56:11 AM 40.6062 -72.9135 52° Northeast 448 516 15,200 2,164 Climbing FlightAware ADS-B
Mon 12:56:42 AM 40.6450 -72.8427 54° Northeast 455 524 16,400 2,032 Climbing FlightAware ADS-B
Mon 12:57:13 AM 40.6824 -72.7728 55° Northeast 461 531 17,300 1,672 Climbing FlightAware ADS-B
Mon 12:57:43 AM 40.7196 -72.7025 55° Northeast 472 543 18,100 1,600 Climbing FlightAware ADS-B
Mon 12:58:13 AM 40.7575 -72.6309 55° Northeast 481 554 18,900 1,672 Climbing FlightAware ADS-B
Mon 12:58:44 AM 40.7969 -72.5564 55° Northeast 488 562 19,800 1,574 Climbing FlightAware ADS-B
Mon 12:59:14 AM 40.8361 -72.4821 55° Northeast 496 571 20,500 1,452 Climbing FlightAware ADS-B
Mon 12:59:46 AM 40.8783 -72.4025 55° Northeast 504 580 21,300 1,594 Climbing FlightAware ADS-B
Mon 01:00:18 AM 40.9220 -72.3195 55° Northeast 510 587 22,200 1,479 Climbing FlightAware ADS-B
Mon 01:00:59 AM 40.9773 -72.2138 55° Northeast 518 596 23,100 1,275 Climbing FlightAware ADS-B
Mon 01:01:38 AM 41.0310 -72.1111 55° Northeast 529 609 23,900 383 Climbing FlightAware ADS-B
Mon 01:02:33 AM 41.0920 -71.9960 55° Northeast 527 606 23,700 1,223 Descending FlightAware ADS-B
Mon 01:03:21 AM 41.1750 -71.8340 56° Northeast 550 633 26,000 1,568 Climbing FlightAware ADS-B
Mon 01:04:01 AM 41.2250 -71.7400 55° Northeast 550 633 26,000  Level FlightAware ADS-B
Mon 01:04:38 AM 41.2710 -71.6530 55° Northeast 550 633 26,000 1,624 Level FlightAware ADS-B
Mon 01:05:26 AM 41.3590 -71.4760 56° Northeast 568 654 28,300 2,182 Climbing FlightAware ADS-B
Mon 01:06:06 AM 41.4180 -71.3600 56° Northeast 563 648 29,200 1,341 Climbing FlightAware ADS-B
Mon 01:06:51 AM 41.4830 -71.2330 56° Northeast 560 644 30,200 1,271 Climbing FlightAware ADS-B
Mon 01:07:31 AM 41.5420 -71.1170 56° Northeast 559 643 31,000 224 Climbing FlightAware ADS-B
Mon 01:10:00 AM 41.6910 -70.6625 66° East  Level FlightAware Approximate
Mon 01:10:25 AM 41.7758 -70.6642 60° Northeast 559 643 31,000  Level Boston Center
Mon 01:11:00 AM 41.7505 -70.4789 66° East  Level FlightAware Approximate
Mon 01:11:24 AM 41.8667 -70.4831 56° Northeast 548 631 31,000  Level Boston Center
Mon 01:12:00 AM 41.8097 -70.2950 67° East  Level FlightAware Approximate
Mon 01:12:25 AM 41.9511 -70.3100 57° Northeast 543 625 31,000  Level Boston Center
Mon 01:13:00 AM 41.8923 -70.1275 61° Northeast  Level Estimated
Mon 01:14:00 AM 41.9662 -69.9527 60° Northeast  Level FlightAware Approximate
Mon 01:14:22 AM 42.1272 -69.9597 56° Northeast 557 641 31,000  Level Boston Center
Mon 01:15:00 AM 42.0398 -69.7775 60° Northeast  Level FlightAware Approximate
Mon 01:16:00 AM 42.2541 -69.6781 59° Northeast  Level FlightAware Approximate
Mon 01:19:23 AM 42.5406 -69.0864 63° Northeast 556 640 31,000  Level Boston Center
Mon 01:21:25 AM 42.7069 -68.7356 57° Northeast 556 640 31,000  Level Boston Center
Mon 01:22:14 AM 42.7500 -68.5833 69° East 550 633 31,000  Level Moncton Center
Mon 01:23:00 AM 42.7345 -68.4127 62° Northeast  Level FlightAware Approximate
Mon 01:24:00 AM 42.8016 -68.2308 63° Northeast  Level FlightAware Approximate
Mon 01:24:14 AM 42.9167 -68.2500 56° Northeast 540 621 31,000  Level Moncton Center
Mon 01:25:14 AM 43.0000 -68.0667 58° Northeast 540 621 31,000  Level Moncton Center
Mon 01:27:14 AM 43.1500 -67.7167 59° Northeast 540 621 31,000  Level Moncton Center
Mon 01:28:14 AM 43.2333 -67.5333 58° Northeast 540 621 31,000  Level Moncton Center
Mon 01:29:22 AM 43.3508 -67.3222 53° Northeast 538 619 31,000  Level Boston Center
Mon 01:30:24 AM 43.4264 -67.1500 59° Northeast 538 619 31,000  Level Boston Center
Mon 01:36:05 AM 43.8600 -66.1330 59° Northeast 534 615 31,000  Level FlightAware ADS-B
Mon 01:36:45 AM 43.9090 -66.0170 60° Northeast 529 609 31,000  Level FlightAware ADS-B
Mon 01:37:25 AM 43.9600 -65.8960 60° Northeast 528 608 31,000  Level FlightAware ADS-B
Mon 01:38:00 AM 44.0030 -65.7950 59° Northeast 527 606 31,000  Level FlightAware ADS-B
Mon 01:38:40 AM 44.0530 -65.6760 60° Northeast 526 605 31,000  Level FlightAware ADS-B
Mon 01:39:26 AM 44.1070 -65.5450 60° Northeast 523 602 31,000  Level FlightAware ADS-B
Mon 01:39:58 AM 44.1450 -65.4550 60° Northeast 523 602 31,000  Level FlightAware ADS-B
Mon 01:40:40 AM 44.1990 -65.3240 60° Northeast 526 605 31,000  Level FlightAware ADS-B
Mon 01:41:26 AM 44.2540 -65.1920 60° Northeast 526 605 31,000  Level FlightAware ADS-B
Mon 01:42:00 AM 44.2970 -65.0880 60° Northeast 527 606 31,000  Level FlightAware ADS-B
Mon 01:42:41 AM 44.3460 -64.9680 60° Northeast 525 604 31,000  Level FlightAware ADS-B
Mon 01:43:25 AM 44.3990 -64.8370 60° Northeast 525 604 31,000  Level FlightAware ADS-B
Mon 01:44:00 AM 44.4400 -64.7360 60° Northeast 526 605 31,000  Level FlightAware ADS-B
Mon 01:44:45 AM 44.4950 -64.5990 61° Northeast 527 606 31,000  Level FlightAware ADS-B
Mon 01:45:30 AM 44.5480 -64.4680 60° Northeast 527 606 31,000  Level FlightAware ADS-B
Mon 01:46:14 AM 44.6010 -64.3340 61° Northeast 526 605 31,000  Level FlightAware ADS-B
Mon 01:46:45 AM 44.6390 -64.2390 61° Northeast 527 606 31,000  Level FlightAware ADS-B
Mon 01:47:30 AM 44.6920 -64.1070 61° Northeast 525 604 31,000  Level FlightAware ADS-B
Mon 01:48:08 AM 44.7370 -63.9930 61° Northeast 525 604 31,000  Level FlightAware ADS-B
Mon 01:48:54 AM 44.7890 -63.8590 61° Northeast 523 602 31,000  Level FlightAware ADS-B
Mon 01:49:42 AM 44.8440 -63.7190 61° Northeast 520 598 31,000  Level FlightAware ADS-B
Mon 01:50:33 AM 44.9050 -63.5620 61° Northeast 517 595 31,000  Level FlightAware ADS-B
Mon 01:51:30 AM 44.9630 -63.4140 61° Northeast 516 594 31,000  Level FlightAware ADS-B
Mon 01:51:54 AM 44.9940 -63.3320 62° Northeast 510 587 31,000  Level FlightAware ADS-B
Mon 01:52:43 AM 45.0400 -63.2090 62° Northeast 510 587 31,000  Level FlightAware ADS-B
Mon 01:53:19 AM 45.0740 -63.1190 62° Northeast 510 587 31,000  Level FlightAware ADS-B
Mon 01:53:56 AM 45.1090 -63.0260 62° Northeast 510 587 31,000  Level FlightAware ADS-B
Mon 01:54:44 AM 45.1540 -62.9060 62° Northeast 510 587 31,000  Level FlightAware ADS-B
Mon 01:55:20 AM 45.1880 -62.8150 62° Northeast 510 587 31,000  Level FlightAware ADS-B
Mon 01:56:08 AM 45.2330 -62.6940 62° Northeast 510 587 31,000  Level FlightAware ADS-B
Mon 01:56:44 AM 45.2670 -62.6040 62° Northeast 510 587 31,000  Level FlightAware ADS-B
Mon 01:57:32 AM 45.3120 -62.4830 62° Northeast 510 587 31,000  Level FlightAware ADS-B
Mon 01:58:08 AM 45.3460 -62.3920 62° Northeast 510 587 31,000  Level FlightAware ADS-B
Mon 01:58:57 AM 45.3920 -62.2690 62° Northeast 510 587 31,000  Level FlightAware ADS-B
Mon 01:59:33 AM 45.4260 -62.1780 62° Northeast 510 587 31,000  Level FlightAware ADS-B
Mon 01:59:57 AM 45.4480 -62.1170 63° Northeast 510 587 31,000  Level FlightAware ADS-B
Mon 02:03:31 AM 45.7600 -61.2620 62° Northeast 512 589 31,000  Level FlightAware ADS-B
Mon 02:04:14 AM 45.8090 -61.1250 63° Northeast 512 589 31,000  Level FlightAware ADS-B
Mon 02:05:00 AM 45.8580 -60.9860 63° Northeast 512 589 31,000  Level FlightAware ADS-B
Mon 02:05:36 AM 45.8970 -60.8760 63° Northeast 513 590 31,000  Level FlightAware ADS-B
Mon 02:06:16 AM 45.9380 -60.7580 63° Northeast 514 592 31,000  Level FlightAware ADS-B
Mon 02:07:00 AM 45.9860 -60.6210 63° Northeast 515 593 31,000  Level FlightAware ADS-B
Mon 02:07:36 AM 46.0250 -60.5090 63° Northeast 515 593 31,000  Level FlightAware ADS-B
Mon 02:08:12 AM 46.0630 -60.3990 64° Northeast 515 593 31,000  Level FlightAware ADS-B
Mon 02:08:56 AM 46.1100 -60.2640 63° Northeast 515 593 31,000  Level FlightAware ADS-B
Mon 02:09:36 AM 46.1500 -60.1450 64° Northeast 514 592 31,000  Level FlightAware ADS-B
Mon 02:10:20 AM 46.1970 -60.0080 64° Northeast 515 593 31,000  Level FlightAware ADS-B
Mon 02:11:02 AM 46.2410 -59.8780 64° Northeast 515 593 31,000  Level FlightAware ADS-B
Mon 02:11:46 AM 46.2880 -59.7390 64° Northeast 514 592 31,000  Level FlightAware ADS-B
Mon 02:12:28 AM 46.3300 -59.6140 64° Northeast 513 590 31,000  Level FlightAware ADS-B
Mon 02:13:08 AM 46.3730 -59.4880 64° Northeast 513 590 31,000  Level FlightAware ADS-B
Mon 02:13:52 AM 46.4180 -59.3520 64° Northeast 513 590 31,000  Level FlightAware ADS-B
Mon 02:14:32 AM 46.4590 -59.2270 65° Northeast 512 589 31,000  Level FlightAware ADS-B
Mon 02:15:12 AM 46.4990 -59.1060 64° Northeast 511 588 31,000  Level FlightAware ADS-B
Mon 02:15:56 AM 46.5450 -58.9670 64° Northeast 511 588 31,000  Level FlightAware ADS-B
Mon 02:16:36 AM 46.5850 -58.8430 65° Northeast 510 587 31,000  Level FlightAware ADS-B
Mon 02:17:20 AM 46.6300 -58.7060 64° Northeast 509 586 31,000  Level FlightAware ADS-B
Mon 02:18:06 AM 46.6760 -58.5640 65° Northeast 510 587 31,000  Level FlightAware ADS-B
Mon 02:18:44 AM 46.7130 -58.4480 65° Northeast 510 587 31,000  Level FlightAware ADS-B
Mon 02:19:24 AM 46.7540 -58.3220 65° Northeast 510 587 31,000  Level FlightAware ADS-B
Mon 02:20:15 AM 46.7970 -58.1840 65° Northeast 510 587 31,000  Level FlightAware ADS-B
Mon 02:21:12 AM 46.8550 -58.0040 65° Northeast 512 589 31,000  Level FlightAware ADS-B
Mon 02:22:00 AM 46.8960 -57.8760 65° Northeast 512 589 31,000 98 Level FlightAware ADS-B
Mon 02:23:15 AM 46.9800 -57.6030 66° East 517 595 31,200 526 Climbing FlightAware ADS-B
Mon 02:23:54 AM 47.0200 -57.4730 66° East 517 595 32,000 608 Climbing FlightAware ADS-B
Mon 02:24:34 AM 47.0560 -57.3550 66° East 515 593 32,000  Level FlightAware ADS-B
Mon 02:25:21 AM 47.1040 -57.1970 66° East 509 586 32,000  Level FlightAware ADS-B
Mon 02:26:01 AM 47.1440 -57.0660 66° East 505 581 32,000  Level FlightAware ADS-B
Mon 02:26:47 AM 47.1870 -56.9250 66° East 504 580 32,000  Level FlightAware ADS-B
Mon 02:27:27 AM 47.2250 -56.7980 66° East 504 580 32,000  Level FlightAware ADS-B
Mon 02:28:14 AM 47.2680 -56.6540 66° East 506 582 32,000  Level FlightAware ADS-B
Mon 02:28:54 AM 47.3050 -56.5270 67° East 507 583 32,000  Level FlightAware ADS-B
Mon 02:29:59 AM 47.3660 -56.3210 66° East 508 585 32,000  Level FlightAware ADS-B
Mon 02:30:43 AM 47.4070 -56.1800 67° East 508 585 32,000  Level FlightAware ADS-B
Mon 02:31:24 AM 47.4460 -56.0480 66° East 508 585 32,000  Level FlightAware ADS-B
Mon 02:32:04 AM 47.4820 -55.9210 67° East 509 586 32,000  Level FlightAware ADS-B
Mon 02:32:49 AM 47.5240 -55.7760 67° East 511 588 32,000  Level FlightAware ADS-B
Mon 02:33:29 AM 47.5610 -55.6470 67° East 512 589 32,000  Level FlightAware ADS-B
Mon 02:34:09 AM 47.5960 -55.5230 67° East 512 589 32,000  Level FlightAware ADS-B
Mon 02:34:54 AM 47.6390 -55.3730 67° East 512 589 32,000  Level FlightAware ADS-B
Mon 02:35:39 AM 47.6800 -55.2250 68° East 513 590 32,000  Level FlightAware ADS-B
Mon 02:36:14 AM 47.7110 -55.1140 67° East 513 590 32,000  Level FlightAware ADS-B
Mon 02:37:03 AM 47.7570 -54.9520 67° East 514 592 32,000  Level FlightAware ADS-B
Mon 02:37:39 AM 47.7880 -54.8360 68° East 516 594 32,000  Level FlightAware ADS-B
Mon 02:38:24 AM 47.8280 -54.6940 67° East 517 595 32,000  Level FlightAware ADS-B
Mon 02:39:09 AM 47.8700 -54.5390 68° East 519 597 32,000  Level FlightAware ADS-B
Mon 02:39:48 AM 47.9060 -54.4060 68° East 518 596 32,000  Level FlightAware ADS-B
Mon 02:40:46 AM 47.9470 -54.2550 68° East 517 595 32,000  Level FlightAware ADS-B
Mon 02:41:28 AM 47.9940 -54.0780 68° East 514 592 32,000  Level FlightAware ADS-B
Mon 02:42:08 AM 48.0290 -53.9460 68° East 510 587 32,000  Level FlightAware ADS-B
Mon 02:42:55 AM 48.0590 -53.8330 68° East 508 585 32,000  Level FlightAware ADS-B
Mon 02:43:36 AM 48.1060 -53.6560 68° East 506 582 32,000  Level FlightAware ADS-B
Mon 02:44:20 AM 48.1430 -53.5150 68° East 506 582 32,000  Level FlightAware ADS-B
Mon 02:45:00 AM 48.1770 -53.3820 69° East 506 582 32,000  Level FlightAware ADS-B
Mon 02:45:44 AM 48.2140 -53.2390 69° East 506 582 32,000  Level FlightAware ADS-B
Mon 02:46:25 AM 48.2480 -53.1070 69° East 507 583 32,000  Level FlightAware ADS-B
Mon 02:46:59 AM 48.2780 -52.9910 69° East 508 585 32,000  Level FlightAware ADS-B
Mon 02:47:45 AM 48.3160 -52.8410 69° East 510 587 32,000  Level FlightAware ADS-B
Mon 02:48:23 AM 48.3480 -52.7140 69° East 512 589 32,000  Level FlightAware ADS-B
Mon 02:49:01 AM 48.3790 -52.5890 69° East 511 588 32,000  Level FlightAware ADS-B
Mon 02:49:41 AM 48.4130 -52.4550 69° East 512 589 32,000  Level FlightAware ADS-B
Mon 02:50:21 AM 48.4450 -52.3260 69° East 511 588 32,000  Level FlightAware ADS-B
Mon 02:51:06 AM 48.4810 -52.1770 70° East 510 587 32,000  Level FlightAware ADS-B
Mon 02:51:46 AM 48.5140 -52.0430 70° East 509 586 32,000  Level FlightAware ADS-B
Mon 02:52:27 AM 48.5460 -51.9120 70° East 505 581 32,000  Level FlightAware ADS-B
Mon 02:53:11 AM 48.5830 -51.7590 70° East 501 577 32,000  Level FlightAware ADS-B
Mon 02:53:46 AM 48.6100 -51.6450 70° East 500 575 32,000  Level FlightAware ADS-B
Mon 02:54:26 AM 48.6420 -51.5130 70° East 497 572 32,000  Level FlightAware ADS-B
Mon 02:55:06 AM 48.6730 -51.3820 70° East 497 572 32,000  Level FlightAware ADS-B
Mon 02:55:51 AM 48.7080 -51.2350 70° East 497 572 32,000  Level FlightAware ADS-B
Mon 02:56:36 AM 48.7430 -51.0850 70° East 497 572 32,000  Level FlightAware ADS-B
Mon 02:57:16 AM 48.7730 -50.9570 70° East 495 570 32,000  Level FlightAware ADS-B
Mon 02:57:57 AM 48.7970 -50.8520 71° East 494 568 32,000  Level FlightAware ADS-B
Mon 02:58:34 AM 48.8220 -50.7490 70° East 494 568 32,000  Level FlightAware ADS-B
Mon 02:59:16 AM 48.8630 -50.5630 71° East 494 568 32,000  Level FlightAware ADS-B
Mon 02:59:51 AM 48.8900 -50.4450 71° East 493 567 32,000  Level FlightAware ADS-B
Mon 03:00:45 AM 48.9240 -50.2950 71° East 493 567 32,000  Level FlightAware ADS-B
Mon 03:01:21 AM 48.9460 -50.1940 72° East 493 567 32,000  Level FlightAware ADS-B
Mon 03:02:10 AM 48.9770 -50.0570 71° East 493 567 32,000  Level FlightAware ADS-B
Mon 03:03:07 AM 49.0130 -49.8980 71° East 493 567 32,000  Level FlightAware ADS-B
Mon 03:03:55 AM 49.0440 -49.7640 71° East 493 567 32,000  Level FlightAware ADS-B
Mon 03:04:31 AM 49.0660 -49.6630 72° East 493 567 32,000  Level FlightAware ADS-B
Mon 03:05:15 AM 49.0000 -50.0000 77° East 502 578 32,000  Level ETMS Enhanced Traffic Management System
Mon 03:05:19 AM 49.0970 -49.5290 70° East 493 567 32,000  Level FlightAware ADS-B
Mon 03:05:46 AM 49.0667 -49.1833 77° East 500 575 32,000  Level Gander Center
Mon 03:05:55 AM 49.1190 -49.4280 72° East 493 567 32,000  Level FlightAware ADS-B
Mon 03:06:44 AM 49.1500 -49.2910 71° East 493 567 32,000  Level FlightAware ADS-B
Mon 03:06:46 AM 49.1000 -48.9667 77° East 490 564 32,000 Level Gander Center
Mon 03:08:00 AM 49.1468 -48.6948 75° East  Level FlightAware Approximate
Mon 03:15:00 AM 49.4011 -47.1424 76° East  Level FlightAware Approximate
Mon 03:16:00 AM 49.4376 -46.9200 76° East  Level FlightAware Approximate
Mon 03:17:00 AM 49.4736 -46.6973 76° East  Level FlightAware Approximate
Mon 03:18:00 AM 49.5092 -46.4743 76° East  Level FlightAware Approximate
Mon 03:19:00 AM 49.5444 -46.2509 76° East  Level FlightAware Approximate
Mon 03:20:00 AM 49.5791 -46.0273 76° East  Level FlightAware Approximate
Mon 03:21:00 AM 49.6134 -45.8033 77° East  Level FlightAware Approximate
Mon 03:22:00 AM 49.6473 -45.5790 77° East  Level FlightAware Approximate
Mon 03:23:00 AM 49.6807 -45.3544 77° East  Level FlightAware Approximate
Mon 03:24:00 AM 49.7137 -45.1295 77° East  Level FlightAware Approximate
Mon 03:25:00 AM 49.7463 -44.9042 77° East  Level FlightAware Approximate
Mon 03:26:00 AM 49.7784 -44.6787 77° East  Level FlightAware Approximate
Mon 03:27:00 AM 49.8101 -44.4529 78° East  Level FlightAware Approximate
Mon 03:28:00 AM 49.8413 -44.2268 78° East  Level FlightAware Approximate
Mon 03:29:00 AM 49.8722 -44.0004 78° East  Level FlightAware Approximate
Mon 03:30:00 AM 49.9025 -43.7737 78° East  Level FlightAware Approximate
Mon 03:31:00 AM 49.9324 -43.5467 78° East  Level FlightAware Approximate
Mon 03:32:00 AM 49.9615 -43.3232 79° East  Level FlightAware Approximate
Mon 03:33:00 AM 49.9900 -43.0994 79° East  Level FlightAware Approximate
Mon 03:34:00 AM 50.0182 -42.8753 79° East  Level FlightAware Approximate
Mon 03:35:00 AM 50.0459 -42.6509 79° East  Level FlightAware Approximate
Mon 03:36:00 AM 50.0732 -42.4263 79° East  Level FlightAware Approximate
Mon 03:37:00 AM 50.1000 -42.2015 79° East  Level FlightAware Approximate
Mon 03:38:00 AM 50.1264 -41.9764 80° East  Level FlightAware Approximate
Mon 03:39:00 AM 50.1524 -41.7510 80° East  Level FlightAware Approximate
Mon 03:40:00 AM 50.1780 -41.5255 80° East  Level FlightAware Approximate
Mon 03:41:00 AM 50.2030 -41.2996 80° East  Level FlightAware Approximate
Mon 03:42:00 AM 50.2277 -41.0736 80° East  Level FlightAware Approximate
Mon 03:43:00 AM 50.2519 -40.8473 80° East  Level FlightAware Approximate
Mon 03:44:00 AM 50.2757 -40.6207 81° East  Level FlightAware Approximate
Mon 03:45:00 AM 50.2990 -40.3940 81° East  Level FlightAware Approximate
Mon 03:46:00 AM 50.3219 -40.1670 81° East  Level FlightAware Approximate
Mon 03:47:00 AM 50.3444 -39.9398 81° East  Level FlightAware Approximate
Mon 03:48:00 AM 50.3664 -39.7124 81° East  Level FlightAware Approximate
Mon 03:49:00 AM 50.3880 -39.4848 81° East  Level FlightAware Approximate
Mon 03:50:00 AM 50.4091 -39.2570 82° East  Level FlightAware Approximate
Mon 03:51:00 AM 50.4298 -39.0290 82° East  Level FlightAware Approximate
Mon 03:52:00 AM 50.4501 -38.8008 82° East  Level FlightAware Approximate
Mon 03:53:00 AM 50.4698 -38.5723 82° East  Level FlightAware Approximate
Mon 03:54:00 AM 50.4892 -38.3433 82° East  Level FlightAware Approximate
Mon 03:55:00 AM 50.5081 -38.1142 83° East  Level FlightAware Approximate
Mon 03:56:00 AM 50.5266 -37.8848 83° East  Level FlightAware Approximate
Mon 03:57:00 AM 50.5447 -37.6553 83° East  Level FlightAware Approximate
Mon 03:58:00 AM 50.5622 -37.4255 83° East  Level FlightAware Approximate
Mon 03:59:00 AM 50.5794 -37.1956 83° East  Level FlightAware Approximate
Mon 04:00:00 AM 50.5960 -36.9656 83° East  Level FlightAware Approximate
Mon 04:01:00 AM 50.6123 -36.7354 84° East  Level FlightAware Approximate
Mon 04:02:00 AM 50.6280 -36.5050 84° East  Level FlightAware Approximate
Mon 04:03:00 AM 50.6433 -36.2745 84° East  Level FlightAware Approximate
Mon 04:04:00 AM 50.6582 -36.0438 84° East  Level FlightAware Approximate
Mon 04:05:00 AM 50.6726 -35.8130 84° East  Level FlightAware Approximate
Mon 04:06:00 AM 50.6865 -35.5821 84° East  Level FlightAware Approximate
Mon 04:07:00 AM 50.7000 -35.3510 85° East  Level FlightAware Approximate
Mon 04:08:00 AM 50.7130 -35.1198 85° East  Level FlightAware Approximate
Mon 04:09:00 AM 50.7256 -34.8884 85° East  Level FlightAware Approximate
Mon 04:10:00 AM 50.7377 -34.6569 85° East  Level FlightAware Approximate
Mon 04:11:00 AM 50.7494 -34.4254 85° East  Level FlightAware Approximate
Mon 04:12:00 AM 50.7606 -34.1936 86° East  Level FlightAware Approximate
Mon 04:13:00 AM 50.7713 -33.9618 86° East  Level FlightAware Approximate
Mon 04:14:00 AM 50.7816 -33.7299 86° East  Level FlightAware Approximate
Mon 04:15:00 AM 50.7914 -33.4979 86° East  Level FlightAware Approximate
Mon 04:16:00 AM 50.8008 -33.2658 86° East  Level FlightAware Approximate
Mon 04:17:00 AM 50.8097 -33.0336 86° East  Level FlightAware Approximate
Mon 04:18:00 AM 50.8181 -32.8013 87° East  Level FlightAware Approximate
Mon 04:19:00 AM 50.8260 -32.5690 87° East  Level FlightAware Approximate
Mon 04:20:00 AM 50.8336 -32.3365 87° East  Level FlightAware Approximate
Mon 04:21:00 AM 50.8406 -32.1040 87° East  Level FlightAware Approximate
Mon 04:22:00 AM 50.8472 -31.8714 87° East  Level FlightAware Approximate
Mon 04:23:00 AM 50.8533 -31.6388 88° East  Level FlightAware Approximate
Mon 04:24:00 AM 50.8590 -31.4061 88° East  Level FlightAware Approximate
Mon 04:25:00 AM 50.8642 -31.1733 88° East  Level FlightAware Approximate
Mon 04:26:00 AM 50.8689 -30.9405 88° East  Level FlightAware Approximate
Mon 04:27:00 AM 50.8732 -30.7077 88° East  Level FlightAware Approximate
Mon 04:28:00 AM 50.8770 -30.4748 88° East  Level FlightAware Approximate
Mon 04:29:00 AM 50.8803 -30.2419 89° East  Level FlightAware Approximate
Mon 04:30:00 AM 50.8832 -30.0089 89° East  Level FlightAware Approximate
Mon 04:31:00 AM 50.8852 -29.7759 89° East  Level FlightAware Approximate
Mon 04:32:00 AM 50.8866 -29.5429 89° East  Level FlightAware Approximate
Mon 04:33:00 AM 50.8876 -29.3103 90° East  Level FlightAware Approximate
Mon 04:34:00 AM 50.8881 -29.0777 90° East  Level FlightAware Approximate
Mon 04:35:00 AM 50.8881 -28.8451 90° East  Level FlightAware Approximate
Mon 04:36:00 AM 50.8877 -28.6124 90° East  Level FlightAware Approximate
Mon 04:37:00 AM 50.8868 -28.3798 90° East  Level FlightAware Approximate
Mon 04:38:00 AM 50.8855 -28.1472 90° East  Level FlightAware Approximate
Mon 04:39:00 AM 50.8837 -27.9146 91° East  Level FlightAware Approximate
Mon 04:40:00 AM 50.8814 -27.6821 91° East  Level FlightAware Approximate
Mon 04:41:00 AM 50.8787 -27.4495 91° East  Level FlightAware Approximate
Mon 04:42:00 AM 50.8755 -27.2170 91° East  Level FlightAware Approximate
Mon 04:43:00 AM 50.8718 -26.9845 91° East  Level FlightAware Approximate
Mon 04:44:00 AM 50.8677 -26.7521 92° East  Level FlightAware Approximate
Mon 04:45:00 AM 50.8632 -26.5197 92° East  Level FlightAware Approximate
Mon 04:46:00 AM 50.8581 -26.2873 92° East  Level FlightAware Approximate
Mon 04:47:00 AM 50.8526 -26.0550 92° East  Level FlightAware Approximate
Mon 04:48:00 AM 50.8467 -25.8228 92° East  Level FlightAware Approximate
Mon 04:49:00 AM 50.8402 -25.5906 92° East  Level FlightAware Approximate
Mon 04:50:00 AM 50.8334 -25.3585 93° East  Level FlightAware Approximate
Mon 04:51:00 AM 50.8260 -25.1265 93° East  Level FlightAware Approximate
Mon 04:52:00 AM 50.8182 -24.8945 93° East  Level FlightAware Approximate
Mon 04:53:00 AM 50.8100 -24.6626 93° East  Level FlightAware Approximate
Mon 04:54:00 AM 50.8012 -24.4308 93° East  Level FlightAware Approximate
Mon 04:55:00 AM 50.7921 -24.1991 93° East  Level FlightAware Approximate
Mon 04:56:00 AM 50.7824 -23.9675 94° East  Level FlightAware Approximate
Mon 04:57:00 AM 50.7723 -23.7360 94° East  Level FlightAware Approximate
Mon 04:58:00 AM 50.7618 -23.5045 94° East  Level FlightAware Approximate
Mon 04:59:00 AM 50.7508 -23.2732 94° East  Level FlightAware Approximate
Mon 05:00:00 AM 50.7393 -23.0420 94° East  Level FlightAware Approximate
Mon 05:01:00 AM 50.7274 -22.8109 95° East  Level FlightAware Approximate
Mon 05:02:00 AM 50.7150 -22.5800 95° East  Level FlightAware Approximate
Mon 05:03:00 AM 50.7021 -22.3491 95° East  Level FlightAware Approximate
Mon 05:04:00 AM 50.6889 -22.1184 95° East  Level FlightAware Approximate
Mon 05:05:00 AM 50.6751 -21.8878 95° East  Level FlightAware Approximate
Mon 05:06:00 AM 50.6612 -21.6573 95° East  Level FlightAware Approximate
Mon 05:07:00 AM 50.6471 -21.4269 95° East  Level FlightAware Approximate
Mon 05:08:00 AM 50.6326 -21.1966 96° East  Level FlightAware Approximate
Mon 05:09:00 AM 50.6177 -20.9665 96° East  Level FlightAware Approximate
Mon 05:10:00 AM 50.6023 -20.7365 96° East  Level FlightAware Approximate
Mon 05:11:00 AM 50.5864 -20.5063 96° East  Level FlightAware Approximate
Mon 05:12:00 AM 50.5701 -20.2763 96° East  Level FlightAware Approximate
Mon 05:13:00 AM 50.5534 -20.0463 96° East  Level FlightAware Approximate
Mon 05:14:00 AM 50.5361 -19.8166 97° East  Level FlightAware Approximate
Mon 05:15:00 AM 50.5185 -19.5870 97° East  Level FlightAware Approximate
Mon 05:16:00 AM 50.5003 -19.3576 97° East  Level FlightAware Approximate
Mon 05:17:00 AM 50.4817 -19.1284 97° East  Level FlightAware Approximate
Mon 05:18:00 AM 50.4627 -18.8994 97° East  Level FlightAware Approximate
Mon 05:19:00 AM 50.4432 -18.6705 98° East  Level FlightAware Approximate
Mon 05:20:00 AM 50.4233 -18.4419 98° East  Level FlightAware Approximate
Mon 05:21:00 AM 50.4029 -18.2134 98° East  Level FlightAware Approximate
Mon 05:22:00 AM 50.3821 -17.9851 98° East  Level FlightAware Approximate
Mon 05:23:00 AM 50.3609 -17.7571 98° East  Level FlightAware Approximate
Mon 05:24:00 AM 50.3391 -17.5292 98° East  Level FlightAware Approximate
Mon 05:25:00 AM 50.3170 -17.3015 99° East  Level FlightAware Approximate
Mon 05:26:00 AM 50.2944 -17.0741 99° East  Level FlightAware Approximate
Mon 05:27:00 AM 50.2713 -16.8469 99° East  Level FlightAware Approximate
Mon 05:28:00 AM 50.2478 -16.6199 99° East  Level FlightAware Approximate
Mon 05:29:00 AM 50.2239 -16.3931 99° East  Level FlightAware Approximate
Mon 05:30:00 AM 50.1996 -16.1666 99° East  Level FlightAware Approximate
Mon 05:31:00 AM 50.1747 -15.9403 100° East  Level FlightAware Approximate
Mon 05:32:00 AM 50.1495 -15.7142 100° East  Level FlightAware Approximate
Mon 05:33:00 AM 50.1238 -15.4884 100° East  Level FlightAware Approximate
Mon 05:34:00 AM 50.0977 -15.2628 100° East  Level FlightAware Approximate
Mon 05:35:00 AM 50.0711 -15.0375 100° East  Level FlightAware Approximate
Mon 05:36:00 AM 50.0442 -14.8124 100° East  Level FlightAware Approximate
Mon 05:37:00 AM 50.0168 -14.5875 101° East  Level FlightAware Approximate
Mon 05:38:00 AM 49.9890 -14.3630 101° East  Level FlightAware Approximate
Mon 05:39:00 AM 49.9608 -14.1386 101° East  Level FlightAware Approximate
Mon 05:40:00 AM 49.9321 -13.9146 101° East  Level FlightAware Approximate
Mon 05:41:00 AM 49.9030 -13.6908 101° East  Level FlightAware Approximate
Mon 05:42:00 AM 49.8735 -13.4672 102° East  Level FlightAware Approximate
Mon 05:43:00 AM 49.8435 -13.2440 102° East  Level FlightAware Approximate
Mon 05:44:00 AM 49.8131 -13.0210 102° East  Level FlightAware Approximate
Mon 05:45:00 AM 49.7823 -12.7983 102° East  Level FlightAware Approximate
Mon 05:46:00 AM 49.7511 -12.5759 102° East  Level FlightAware Approximate
Mon 05:47:00 AM 49.7194 -12.3538 102° East  Level FlightAware Approximate
Mon 05:47:28 AM 49.3700 -9.7820 103° East 596 686 33,000  Level FlightAware ADS-B
Mon 05:47:58 AM 49.3540 -9.6760 103° East 596 686 33,000  Level FlightAware ADS-B
Mon 05:48:00 AM 49.6874 -12.1320 103° East  Level FlightAware Approximate
Mon 05:48:44 AM 49.3190 -9.4690 104° East 593 682 33,000  Level FlightAware ADS-B
Mon 05:49:26 AM 49.2920 -9.2990 104° East 592 681 33,000  Level FlightAware ADS-B
Mon 05:49:56 AM 49.2730 -9.1810 104° East 591 680 33,000  Level FlightAware ADS-B
Mon 05:50:32 AM 49.2388 -8.9860 104° East 486 559 33,000  Level FlightAware UK
Mon 05:50:43 AM 49.2410 -8.9920 104° East 592 681 33,000  Level FlightAware ADS-B
Mon 05:51:32 AM 49.1986 -8.7428 104° East 486 559 33,000  Level FlightAware UK
Mon 05:51:37 AM 49.2040 -8.7670 104° East 590 679 33,000  Level FlightAware ADS-B
Mon 05:52:13 AM 49.1800 -8.6250 104° East 589 678 33,000  Level FlightAware ADS-B
Mon 05:52:59 AM 49.1470 -8.4350 105° East 590 679 33,000  Level FlightAware ADS-B
Mon 05:53:32 AM 49.1162 -8.2590 105° East 486 559 33,000  Level FlightAware UK
Mon 05:53:38 AM 49.1210 -8.2830 105° East 589 678 33,000  Level FlightAware ADS-B
Mon 05:54:16 AM 49.0940 -8.1270 105° East 589 678 33,000  Level FlightAware ADS-B
Mon 05:55:02 AM 49.0530 -7.8969 105° East 484 557 33,000  Level FlightAware UK
Mon 05:55:03 AM 49.0610 -7.9380 105° East 589 678 33,000  Level FlightAware ADS-B
Mon 05:55:43 AM 49.0330 -7.7780 105° East 590 679 33,000 71 Level FlightAware ADS-B
Mon 05:56:27 AM 48.9960 -7.6020 108° East 590 679 33,100 608 Climbing FlightAware ADS-B
Mon 05:57:02 AM 48.9476 -7.4268 108° East 492 566 33,800 1,200 Climbing FlightAware UK
Mon 05:57:07 AM 48.9510 -7.4550 108° East 591 680 33,900 1,091 Climbing FlightAware ADS-B
Mon 05:57:46 AM 48.9080 -7.3120 115° Southeast 595 685 34,600 776 Climbing FlightAware ADS-B
Mon 05:58:32 AM 48.8419 -7.0871 115° Southeast 494 568 35,000 522 Climbing FlightAware UK
Mon 05:58:32 AM 48.8510 -7.1330 115° Southeast 598 688 35,000  Level FlightAware ADS-B
Mon 05:59:08 AM 48.7963 -6.9528 115° Southeast 492 566 35,000  Level FlightAware UK
Mon 05:59:12 AM 48.8010 -6.9850 115° Southeast 596 686 35,000  Level FlightAware ADS-B
Mon 05:59:56 AM 48.7470 -6.8200 116° Southeast 595 685 35,000  Level FlightAware ADS-B
Mon 06:00:37 AM 48.6970 -6.6690 116° Southeast 593 682 35,000  Level FlightAware ADS-B
Mon 06:00:39 AM 48.6852 -6.6164 116° Southeast 488 562 35,000  Level FlightAware UK
Mon 06:01:09 AM 48.6482 -6.5047 116° Southeast 490 564 35,000  Level FlightAware UK
Mon 06:01:17 AM 48.6490 -6.5220 116° Southeast 593 682 35,000  Level FlightAware ADS-B
Mon 06:01:57 AM 48.5990 -6.3710 117° Southeast 592 681 35,000  Level FlightAware ADS-B
Mon 06:02:42 AM 48.5470 -6.2160 117° Southeast 593 682 35,000  Level FlightAware ADS-B
Mon 06:02:45 AM 48.5296 -6.1478 117° Southeast 490 564 35,000  Level FlightAware UK
Mon 06:03:15 AM 48.4921 -6.0368 117° Southeast 490 564 35,000  Level FlightAware UK
Mon 06:03:27 AM 48.4900 -6.0460 117° Southeast 593 682 35,000  Level FlightAware ADS-B
Mon 06:04:02 AM 48.4470 -5.9200 117° Southeast 597 687 35,000  Level FlightAware ADS-B
Mon 06:04:45 AM 48.3783 -5.7037 117° Southeast 492 566 35,000  Level FlightAware UK
Mon 06:04:47 AM 48.3880 -5.7450 117° Southeast 598 688 35,000  Level FlightAware ADS-B
Mon 06:05:32 AM 48.3290 -5.5750 118° Southeast 597 687 35,000  Level FlightAware ADS-B
Mon 06:06:12 AM 48.2790 -5.4300 117° Southeast 596 686 35,000  Level FlightAware ADS-B
Mon 06:06:51 AM 48.2181 -5.2403 117° Southeast 490 564 35,000  Level FlightAware UK
Mon 06:06:58 AM 48.2180 -5.2550 117° Southeast 596 686 35,000  Level FlightAware ADS-B
Mon 06:07:39 AM 48.1670 -5.1080 117° Southeast 597 687 35,000  Level FlightAware ADS-B
Mon 06:08:23 AM 48.1100 -4.9460 118° Southeast 596 686 35,000  Level FlightAware ADS-B
Mon 06:09:03 AM 48.0590 -4.8020 118° Southeast 596 686 35,000  Level FlightAware ADS-B
Mon 06:09:47 AM 48.0010 -4.6390 118° Southeast 595 685 35,000  Level FlightAware ADS-B
Mon 06:10:27 AM 47.9500 -4.4950 118° Southeast 595 685 35,000  Level FlightAware ADS-B
Mon 06:11:21 AM 47.8800 -4.2990 118° Southeast 595 685 35,000  Level FlightAware ADS-B
Mon 06:12:05 AM 47.8240 -4.1450 118° Southeast 595 685 35,000  Level FlightAware ADS-B
Mon 06:12:45 AM 47.7730 -4.0060 119° Southeast 594 684 35,000  Level FlightAware ADS-B
Mon 06:13:31 AM 47.7100 -3.8330 118° Southeast 595 685 35,000  Level FlightAware ADS-B
Mon 06:14:11 AM 47.6580 -3.6910 118° Southeast 595 685 35,000  Level FlightAware ADS-B
Mon 06:14:47 AM 47.6110 -3.5630 119° Southeast 595 685 35,000  Level FlightAware ADS-B
Mon 06:15:29 AM 47.5550 -3.4140 119° Southeast 594 684 35,000  Level FlightAware ADS-B
Mon 06:16:09 AM 47.5010 -3.2690 119° Southeast 593 682 35,000  Level FlightAware ADS-B
Mon 06:16:50 AM 47.4470 -3.1240 119° Southeast 590 679 35,000  Level FlightAware ADS-B
Mon 06:17:33 AM 47.3890 -2.9730 120° Southeast 588 677 35,000  Level FlightAware ADS-B
Mon 06:18:13 AM 47.3360 -2.8330 119° Southeast 588 677 35,000  Level FlightAware ADS-B
Mon 06:18:59 AM 47.2760 -2.6740 119° Southeast 587 676 35,000  Level FlightAware ADS-B
Mon 06:19:35 AM 47.2280 -2.5480 119° Southeast 587 676 35,000  Level FlightAware ADS-B
Mon 06:19:55 AM 47.2010 -2.4790 120° Southeast 587 676 35,000  Level FlightAware ADS-B
Mon 06:20:59 AM 47.1190 -2.2680 120° Southeast 586 674 35,000  Level FlightAware ADS-B
Mon 06:21:56 AM 47.0380 -2.0590 120° Southeast 586 674 35,000  Level FlightAware ADS-B
Mon 06:22:38 AM 46.9810 -1.9140 120° Southeast 585 673 35,000  Level FlightAware ADS-B
Mon 06:23:02 AM 46.9490 -1.8330 120° Southeast 585 673 35,000  Level FlightAware ADS-B
Mon 06:24:15 AM 46.8520 -1.5900 120° Southeast 582 670 35,000  Level FlightAware ADS-B
Mon 06:24:55 AM 46.7980 -1.4540 120° Southeast 583 671 35,000  Level FlightAware ADS-B
Mon 06:25:40 AM 46.7380 -1.3050 120° Southeast 582 670 35,000  Level FlightAware ADS-B
Mon 06:26:35 AM 46.6640 -1.1160 120° Southeast 583 671 35,000  Level FlightAware ADS-B
Mon 06:27:15 AM 46.6320 -0.9660 107° East 582 670 35,000  Level FlightAware ADS-B
Mon 06:28:00 AM 46.5930 -0.7970 109° East 581 669 35,000  Level FlightAware ADS-B
Mon 06:29:00 AM 46.5370 -0.5810 111° Southeast 581 669 35,000  Level FlightAware ADS-B
Mon 06:29:32 AM 46.5150 -0.4610 105° East 576 663 35,000  Level FlightAware ADS-B
Mon 06:30:12 AM 46.4940 -0.3160 102° East 576 663 35,000  Level FlightAware ADS-B
Mon 06:30:52 AM 46.4700 -0.1610 103° East 575 662 35,000  Level FlightAware ADS-B
Mon 06:31:32 AM 46.4470 -0.0060 102° East 574 661 35,000  Level FlightAware ADS-B
Mon 06:32:17 AM 46.4220 0.1570 102° East 574 661 35,000  Level FlightAware ADS-B
Mon 06:32:47 AM 46.4050 0.2670 103° East 573 659 35,000  Level FlightAware ADS-B
Mon 06:33:32 AM 46.3790 0.4430 102° East 573 659 35,000  Level FlightAware ADS-B
Mon 06:34:12 AM 46.3570 0.5880 102° East 572 658 35,000  Level FlightAware ADS-B
Mon 06:34:47 AM 46.3330 0.7130 105° East 573 659 35,000  Level FlightAware ADS-B
Mon 06:35:32 AM 46.2870 0.8770 112° Southeast 570 656 35,000  Level FlightAware ADS-B
Mon 06:36:12 AM 46.2410 1.0150 116° Southeast 569 655 35,000  Level FlightAware ADS-B
Mon 06:37:02 AM 46.1880 1.1750 116° Southeast 565 650 35,000  Level FlightAware ADS-B
Mon 06:37:42 AM 46.1370 1.3240 116° Southeast 561 646 35,000  Level FlightAware ADS-B
Mon 06:38:26 AM 46.0900 1.4620 116° Southeast 555 639 35,000  Level FlightAware ADS-B
Mon 06:39:07 AM 46.0440 1.5970 116° Southeast 554 638 35,000  Level FlightAware ADS-B
Mon 06:39:47 AM 45.9980 1.7290 117° Southeast 549 632 35,000  Level FlightAware ADS-B
Mon 06:40:30 AM 45.9460 1.8790 116° Southeast 546 628 35,000  Level FlightAware ADS-B
Mon 06:41:14 AM 45.8960 2.0210 117° Southeast 543 625 35,000  Level FlightAware ADS-B
Mon 06:41:54 AM 45.8550 2.1410 116° Southeast 540 621 35,000  Level FlightAware ADS-B
Mon 06:42:38 AM 45.8030 2.2900 117° Southeast 537 618 35,000  Level FlightAware ADS-B
Mon 06:43:15 AM 45.7620 2.4090 116° Southeast 536 617 35,000  Level FlightAware ADS-B
Mon 06:44:02 AM 45.7130 2.5530 116° Southeast 535 616 35,000  Level FlightAware ADS-B
Mon 06:44:41 AM 45.6700 2.6790 116° Southeast 533 613 35,000  Level FlightAware ADS-B
Mon 06:45:21 AM 45.6260 2.8080 116° Southeast 532 612 35,000  Level FlightAware ADS-B
Mon 06:46:05 AM 45.5790 2.9460 116° Southeast 529 609 35,000  Level FlightAware ADS-B
Mon 06:46:47 AM 45.5330 3.0770 117° Southeast 525 604 35,000  Level FlightAware ADS-B
Mon 06:47:31 AM 45.4860 3.2140 116° Southeast 523 602 35,000  Level FlightAware ADS-B
Mon 06:48:11 AM 45.4440 3.3350 116° Southeast 525 604 35,000  Level FlightAware ADS-B
Mon 06:48:53 AM 45.3990 3.4640 116° Southeast 523 602 35,000  Level FlightAware ADS-B
Mon 06:49:37 AM 45.3500 3.6040 116° Southeast 525 604 35,000  Level FlightAware ADS-B
Mon 06:50:17 AM 45.3080 3.7270 116° Southeast 525 604 35,000  Level FlightAware ADS-B
Mon 06:51:03 AM 45.2590 3.8680 116° Southeast 524 603 35,000  Level FlightAware ADS-B
Mon 06:51:43 AM 45.2160 3.9900 117° Southeast 522 601 35,000  Level FlightAware ADS-B
Mon 06:52:27 AM 45.1700 4.1250 116° Southeast 518 596 35,000  Level FlightAware ADS-B
Mon 06:53:07 AM 45.1280 4.2480 116° Southeast 517 595 35,000  Level FlightAware ADS-B
Mon 06:53:47 AM 45.0880 4.3680 115° Southeast 516 594 35,000  Level FlightAware ADS-B
Mon 06:54:27 AM 45.0470 4.4910 115° Southeast 515 593 35,000  Level FlightAware ADS-B
Mon 06:55:12 AM 44.9990 4.6290 116° Southeast 513 590 35,000  Level FlightAware ADS-B
Mon 06:55:48 AM 44.9630 4.7340 116° Southeast 511 588 35,000  Level FlightAware ADS-B
Mon 06:56:28 AM 44.9200 4.8520 117° Southeast 509 586 35,000  Level FlightAware ADS-B
Mon 06:57:10 AM 44.8750 4.9780 117° Southeast 508 585 35,000  Level FlightAware ADS-B
Mon 06:57:54 AM 44.8280 5.1070 117° Southeast 509 586 35,000  Level FlightAware ADS-B
Mon 06:58:38 AM 44.7810 5.2380 117° Southeast 509 586 35,000  Level FlightAware ADS-B
Mon 06:59:18 AM 44.7270 5.3470 125° Southeast 502 578 35,000  Level FlightAware ADS-B
Mon 06:59:55 AM 44.6720 5.4360 131° Southeast 502 578 35,000  Level FlightAware ADS-B
Mon 07:00:46 AM 44.6090 5.5420 130° Southeast 503 579 35,000  Level FlightAware ADS-B
Mon 07:01:35 AM 44.5240 5.6890 129° Southeast 506 582 35,000  Level FlightAware ADS-B
Mon 07:02:15 AM 44.4660 5.7870 130° Southeast 508 585 35,000  Level FlightAware ADS-B
Mon 07:03:20 AM 44.3830 5.9200 131° Southeast 511 588 35,000  Level FlightAware ADS-B
Mon 07:04:05 AM 44.2930 6.0660 131° Southeast 516 594 35,000  Level FlightAware ADS-B
Mon 07:04:45 AM 44.2300 6.1670 131° Southeast 519 597 35,000  Level FlightAware ADS-B
Mon 07:05:29 AM 44.1630 6.2760 131° Southeast 521 600 35,000  Level FlightAware ADS-B
Mon 07:05:57 AM 44.1180 6.3490 131° Southeast 523 602 35,000  Level FlightAware ADS-B
Mon 07:06:34 AM 44.0640 6.4380 130° Southeast 524 603 35,000  Level FlightAware ADS-B
Mon 07:07:37 AM 43.9640 6.6080 129° Southeast 530 610 35,000  Level FlightAware ADS-B
Mon 07:08:17 AM 43.9000 6.7170 129° Southeast 530 610 35,000  Level FlightAware ADS-B
Mon 07:08:55 AM 43.8460 6.8100 129° Southeast 531 611 35,000  Level FlightAware ADS-B
Mon 07:09:43 AM 43.7700 6.9490 127° Southeast 533 613 35,000  Level FlightAware ADS-B
Mon 07:10:22 AM 43.7230 7.0530 122° Southeast 535 616 35,000  Level FlightAware ADS-B
Mon 07:11:17 AM 43.6490 7.2160 122° Southeast 534 615 35,000  Level FlightAware ADS-B
Mon 07:12:03 AM 43.5880 7.3510 122° Southeast 534 615 35,000  Level FlightAware ADS-B
Mon 07:12:41 AM 43.5440 7.4480 122° Southeast 534 615 35,000  Level FlightAware ADS-B
Mon 07:13:24 AM 43.4860 7.5850 120° Southeast 536 617 35,000  Level FlightAware ADS-B
Mon 07:14:02 AM 43.4380 7.7000 120° Southeast 541 623 35,000  Level FlightAware ADS-B
Mon 07:14:41 AM 43.3920 7.8120 119° Southeast 540 621 35,000  Level FlightAware ADS-B
Mon 07:15:21 AM 43.3400 7.9340 120° Southeast 542 624 35,000  Level FlightAware ADS-B
Mon 07:16:05 AM 43.2880 8.0620 119° Southeast 543 625 35,000  Level FlightAware ADS-B
Mon 07:16:51 AM 43.2290 8.2030 120° Southeast 541 623 35,000  Level FlightAware ADS-B
Mon 07:17:24 AM 43.1980 8.2760 120° Southeast 540 621 35,000  Level FlightAware ADS-B
Mon 07:18:14 AM 43.1400 8.4150 120° Southeast 536 617 35,000  Level FlightAware ADS-B
Mon 07:18:56 AM 43.0750 8.5740 119° Southeast 528 608 35,000  Level FlightAware ADS-B
Mon 07:19:36 AM 43.0280 8.6910 119° Southeast 525 604 35,000  Level FlightAware ADS-B
Mon 07:20:24 AM 42.9900 8.7910 117° Southeast 520 598 35,000  Level FlightAware ADS-B
Mon 07:21:00 AM 42.9330 8.9330 119° Southeast 511 588 35,000  Level FlightAware ADS-B
Mon 07:21:44 AM 42.8830 9.0570 119° Southeast 506 582 35,000  Level FlightAware ADS-B
Mon 07:22:24 AM 42.8370 9.1690 119° Southeast 504 580 35,000  Level FlightAware ADS-B
Mon 07:23:24 AM 42.7720 9.3290 119° Southeast 504 580 35,000 340 Level FlightAware ADS-B
Mon 07:24:10 AM 42.7190 9.4600 119° Southeast 511 588 35,600 882 Climbing FlightAware ADS-B
Mon 07:25:06 AM 42.6520 9.6030 122° Southeast 507 583 36,500 875 Climbing FlightAware ADS-B
Mon 07:25:46 AM 42.5880 9.7130 128° Southeast 501 577 37,000 357 Climbing FlightAware ADS-B
Mon 07:26:30 AM 42.5230 9.8180 130° Southeast 499 574 37,000  Level FlightAware ADS-B
Mon 07:27:10 AM 42.4670 9.9140 128° Southeast 501 577 37,000  Level FlightAware ADS-B
Mon 07:27:54 AM 42.4030 10.0290 127° Southeast 507 583 37,000  Level FlightAware ADS-B
Mon 07:28:32 AM 42.3540 10.1310 123° Southeast 510 587 37,000  Level FlightAware ADS-B
Mon 07:29:00 AM 42.3190 10.2050 123° Southeast 513 590 37,000  Level FlightAware ADS-B
Mon 07:29:46 AM 42.2580 10.3300 123° Southeast 515 593 37,000  Level FlightAware ADS-B
Mon 07:30:26 AM 42.2060 10.4370 123° Southeast 516 594 37,000  Level FlightAware ADS-B
Mon 07:31:03 AM 42.1580 10.5340 124° Southeast 517 595 37,000  Level FlightAware ADS-B
Mon 07:31:44 AM 42.1030 10.6460 123° Southeast 520 598 37,000  Level FlightAware ADS-B
Mon 07:32:28 AM 42.0440 10.7650 124° Southeast 525 604 37,000  Level FlightAware ADS-B
Mon 07:33:00 AM 42.0010 10.8510 124° Southeast 527 606 37,000  Level FlightAware ADS-B
Mon 07:33:44 AM 41.9410 10.9720 124° Southeast 530 610 37,000  Level FlightAware ADS-B
Mon 07:34:24 AM 41.8860 11.0810 124° Southeast 534 615 37,000  Level FlightAware ADS-B
Mon 07:35:00 AM 41.8360 11.1810 124° Southeast 535 616 37,000  Level FlightAware ADS-B
Mon 07:35:42 AM 41.7780 11.2980 124° Southeast 536 617 37,000  Level FlightAware ADS-B
Mon 07:36:22 AM 41.7230 11.4070 124° Southeast 535 616 37,000  Level FlightAware ADS-B
Mon 07:37:06 AM 41.6620 11.5270 124° Southeast 534 615 37,000  Level FlightAware ADS-B
Mon 07:37:50 AM 41.6010 11.6470 124° Southeast 532 612 37,000  Level FlightAware ADS-B
Mon 07:38:28 AM 41.5490 11.7500 124° Southeast 531 611 37,000  Level FlightAware ADS-B
Mon 07:39:09 AM 41.4930 11.8600 124° Southeast 533 613 37,000  Level FlightAware ADS-B
Mon 07:39:52 AM 41.4310 11.9790 125° Southeast 535 616 37,000  Level FlightAware ADS-B
Mon 07:40:36 AM 41.3690 12.0990 125° Southeast 536 617 37,000  Level FlightAware ADS-B
Mon 07:41:18 AM 41.3110 12.2120 124° Southeast 539 620 37,000  Level FlightAware ADS-B
Mon 07:42:02 AM 41.2490 12.3320 124° Southeast 541 623 37,000  Level FlightAware ADS-B
Mon 07:42:42 AM 41.1910 12.4430 125° Southeast 542 624 37,000  Level FlightAware ADS-B
Mon 07:43:22 AM 41.1390 12.5530 122° Southeast 544 626 37,000  Level FlightAware ADS-B
Mon 07:44:04 AM 41.0850 12.6770 120° Southeast 542 624 37,000  Level FlightAware ADS-B
Mon 07:44:47 AM 41.0350 12.7920 120° Southeast 539 620 37,000  Level FlightAware ADS-B
Mon 07:45:32 AM 40.9750 12.9250 121° Southeast 533 613 37,000  Level FlightAware ADS-B
Mon 07:46:08 AM 40.9310 13.0220 121° Southeast 532 612 37,000  Level FlightAware ADS-B
Mon 07:46:57 AM 40.8700 13.1610 120° Southeast 531 611 37,000  Level FlightAware ADS-B
Mon 07:47:36 AM 40.8220 13.2680 121° Southeast 531 611 37,000  Level FlightAware ADS-B
Mon 07:48:18 AM 40.7690 13.3870 120° Southeast 532 612 37,000  Level FlightAware ADS-B
Mon 07:49:01 AM 40.7140 13.5100 121° Southeast 533 613 37,000  Level FlightAware ADS-B
Mon 07:49:42 AM 40.6640 13.6210 121° Southeast 532 612 37,000  Level FlightAware ADS-B
Mon 07:50:24 AM 40.6100 13.7410 121° Southeast 529 609 37,000  Level FlightAware ADS-B
Mon 07:51:09 AM 40.5530 13.8680 121° Southeast 526 605 37,000  Level FlightAware ADS-B
Mon 07:51:47 AM 40.5070 13.9700 121° Southeast 523 602 37,000  Level FlightAware ADS-B
Mon 07:52:31 AM 40.4510 14.0910 121° Southeast 521 600 37,000  Level FlightAware ADS-B
Mon 07:53:14 AM 40.4000 14.2030 121° Southeast 522 601 37,000  Level FlightAware ADS-B
Mon 07:53:44 AM 40.3620 14.2860 121° Southeast 521 600 37,000  Level FlightAware ADS-B
Mon 07:54:31 AM 40.3050 14.4110 121° Southeast 521 600 37,000  Level FlightAware ADS-B
Mon 07:55:11 AM 40.2530 14.5230 121° Southeast 522 601 37,000  Level FlightAware ADS-B
Mon 07:55:47 AM 40.2100 14.6160 121° Southeast 522 601 37,000  Level FlightAware ADS-B
Mon 07:56:29 AM 40.1570 14.7290 122° Southeast 522 601 37,000  Level FlightAware ADS-B
Mon 07:57:13 AM 40.1010 14.8490 121° Southeast 524 603 37,000  Level FlightAware ADS-B
Mon 07:57:54 AM 40.0480 14.9620 121° Southeast 526 605 37,000  Level FlightAware ADS-B
Mon 07:58:33 AM 39.9980 15.0700 121° Southeast 526 605 37,000  Level FlightAware ADS-B
Mon 07:59:18 AM 39.9410 15.1890 122° Southeast 528 608 37,000  Level FlightAware ADS-B
Mon 07:59:59 AM 39.8880 15.3030 121° Southeast 528 608 37,000  Level FlightAware ADS-B
Mon 08:00:39 AM 39.8360 15.4100 122° Southeast 528 608 37,000  Level FlightAware ADS-B
Mon 08:01:14 AM 39.7920 15.5030 122° Southeast 529 609 37,000  Level FlightAware ADS-B
Mon 08:01:57 AM 39.7360 15.6200 122° Southeast 527 606 37,000  Level FlightAware ADS-B
Mon 08:02:36 AM 39.6860 15.7240 122° Southeast 524 603 37,000  Level FlightAware ADS-B
Mon 08:03:14 AM 39.6400 15.8200 122° Southeast 523 602 37,000  Level FlightAware ADS-B
Mon 08:03:59 AM 39.5800 15.9420 123° Southeast 523 602 37,000  Level FlightAware ADS-B
Mon 08:04:36 AM 39.5330 16.0390 122° Southeast 524 603 37,000  Level FlightAware ADS-B
Mon 08:05:20 AM 39.4770 16.1550 122° Southeast 524 603 37,000  Level FlightAware ADS-B
Mon 08:06:01 AM 39.4220 16.2680 122° Southeast 525 604 37,000  Level FlightAware ADS-B
Mon 08:06:45 AM 39.3650 16.3840 122° Southeast 525 604 37,000  Level FlightAware ADS-B
Mon 08:07:25 AM 39.3130 16.4900 122° Southeast 524 603 37,000  Level FlightAware ADS-B
Mon 08:08:09 AM 39.2560 16.6050 123° Southeast 525 604 37,000  Level FlightAware ADS-B
Mon 08:08:49 AM 39.2040 16.7100 123° Southeast 526 605 37,000  Level FlightAware ADS-B
Mon 08:09:27 AM 39.1660 16.8210 114° Southeast 533 613 37,000  Level FlightAware ADS-B
Mon 08:10:10 AM 39.1310 16.9470 110° East 534 615 37,000  Level FlightAware ADS-B
Mon 08:10:54 AM 39.0910 17.0830 111° Southeast 532 612 37,000  Level FlightAware ADS-B
Mon 08:11:36 AM 39.0550 17.2080 110° East 533 613 37,000  Level FlightAware ADS-B
Mon 08:12:16 AM 39.0290 17.3040 109° East 532 612 37,000  Level FlightAware ADS-B
Mon 08:12:57 AM 38.9900 17.4480 109° East 532 612 37,000  Level FlightAware ADS-B
Mon 08:13:38 AM 38.9550 17.5730 110° East 532 612 37,000  Level FlightAware ADS-B
Mon 08:14:22 AM 38.9170 17.7040 110° East 531 611 37,000  Level FlightAware ADS-B
Mon 08:15:02 AM 38.8850 17.8190 110° East 531 611 37,000  Level FlightAware ADS-B
Mon 08:15:42 AM 38.8510 17.9400 110° East 531 611 37,000  Level FlightAware ADS-B
Mon 08:16:26 AM 38.8130 18.0710 110° East 530 610 37,000  Level FlightAware ADS-B
Mon 08:17:02 AM 38.7840 18.1750 110° East 531 611 37,000  Level FlightAware ADS-B
Mon 08:17:44 AM 38.7490 18.2980 110° East 533 613 37,000  Level FlightAware ADS-B
Mon 08:18:22 AM 38.7160 18.4120 110° East 535 616 37,000  Level FlightAware ADS-B
Mon 08:19:08 AM 38.6760 18.5510 110° East 535 616 37,000  Level FlightAware ADS-B
Mon 08:19:48 AM 38.6420 18.6680 110° East 536 617 37,000  Level FlightAware ADS-B
Mon 08:22:00 AM 38.5215 19.0519 112° Southeast  Level Estimated
Mon 08:22:14 AM 38.5340 19.0430 112° Southeast 536 617 37,000  Level FlightAware ADS-B
Mon 08:22:51 AM 38.5080 19.1370 109° East 536 617 37,000  Level FlightAware ADS-B
Mon 08:23:52 AM 38.4360 19.3660 112° Southeast 537 618 37,000  Level FlightAware ADS-B
Mon 08:24:17 AM 38.4150 19.4360 111° Southeast 536 617 37,000  Level FlightAware ADS-B
Mon 08:25:26 AM 38.3520 19.6430 111° Southeast 534 615 37,000  Level FlightAware ADS-B
Mon 08:26:07 AM 38.3170 19.7600 111° Southeast 532 612 37,000  Level FlightAware ADS-B
Mon 08:26:47 AM 38.2790 19.8850 111° Southeast 530 610 37,000  Level FlightAware ADS-B
Mon 08:27:24 AM 38.2460 19.9910 112° Southeast 530 610 37,000  Level FlightAware ADS-B
Mon 08:28:12 AM 38.2060 20.1250 111° Southeast 529 609 37,000  Level FlightAware ADS-B
Mon 08:28:49 AM 38.1780 20.2170 111° Southeast 529 609 37,000  Level FlightAware ADS-B
Mon 08:29:29 AM 38.1400 20.3400 111° Southeast 528 608 37,000  Level FlightAware ADS-B
Mon 08:30:18 AM 38.1030 20.4600 111° Southeast 528 608 37,000  Level FlightAware ADS-B
Mon 08:30:54 AM 38.0760 20.5490 111° Southeast 528 608 37,000  Level FlightAware ADS-B
Mon 08:31:34 AM 38.0180 20.7270 112° Southeast 524 603 37,000  Level FlightAware ADS-B
Mon 08:32:24 AM 37.9760 20.8600 112° Southeast 521 600 37,000  Level FlightAware ADS-B
Mon 08:33:14 AM 37.9280 21.0120 112° Southeast 520 598 37,000  Level FlightAware ADS-B
Mon 08:34:13 AM 37.8740 21.1810 112° Southeast 519 597 37,000  Level FlightAware ADS-B
Mon 08:34:52 AM 37.8410 21.2840 112° Southeast 520 598 37,000  Level FlightAware ADS-B
Mon 08:35:37 AM 37.7990 21.4130 112° Southeast 522 601 37,000  Level FlightAware ADS-B
Mon 08:36:15 AM 37.7700 21.5050 112° Southeast 522 601 37,000  Level FlightAware ADS-B
Mon 08:36:53 AM 37.7280 21.6330 112° Southeast 524 603 37,000  Level FlightAware ADS-B
Mon 08:37:37 AM 37.6910 21.7460 112° Southeast 524 603 37,000  Level FlightAware ADS-B
Mon 08:38:05 AM 37.6640 21.8300 112° Southeast 525 604 37,000  Level FlightAware ADS-B
Mon 08:38:46 AM 37.6240 21.9510 113° Southeast 525 604 37,000  Level FlightAware ADS-B
Mon 08:39:34 AM 37.5820 22.0800 112° Southeast 527 606 37,000  Level FlightAware ADS-B
Mon 08:42:00 AM 37.4349 22.4910 114° Southeast  Level Estimated
Mon 08:43:00 AM 37.3740 22.6595 114° Southeast  Level Estimated
Mon 08:44:00 AM 37.3129 22.8277 115° Southeast  Level Estimated
Mon 08:44:15 AM 37.3270 22.8390 115° Southeast 526 605 37,000  Level FlightAware ADS-B
Mon 08:44:49 AM 37.2920 22.9400 114° Southeast 526 605 37,000  Level FlightAware ADS-B
Mon 08:45:22 AM 37.2490 23.0670 113° Southeast 526 605 37,000  Level FlightAware ADS-B
Mon 08:45:56 AM 37.2170 23.1610 113° Southeast 526 605 37,000  Level FlightAware ADS-B
Mon 08:46:32 AM 37.1810 23.2640 114° Southeast 526 605 37,000  Level FlightAware ADS-B
Mon 08:47:08 AM 37.1460 23.3670 113° Southeast 527 606 37,000  Level FlightAware ADS-B
Mon 08:47:44 AM 37.1120 23.4640 114° Southeast 527 606 37,000  Level FlightAware ADS-B
Mon 08:48:19 AM 37.0790 23.5600 113° Southeast 527 606 37,000  Level FlightAware ADS-B
Mon 08:48:56 AM 37.0410 23.6690 114° Southeast 527 606 37,000  Level FlightAware ADS-B
Mon 08:49:28 AM 37.0100 23.7570 114° Southeast 528 608 37,000  Level FlightAware ADS-B
Mon 08:50:03 AM 36.9750 23.8550 114° Southeast 528 608 37,000  Level FlightAware ADS-B
Mon 08:50:39 AM 36.9440 23.9450 113° Southeast 528 608 37,000  Level FlightAware ADS-B
Mon 08:51:10 AM 36.9110 24.0380 114° Southeast 528 608 37,000  Level FlightAware ADS-B
Mon 08:51:49 AM 36.8720 24.1480 114° Southeast 529 609 37,000  Level FlightAware ADS-B
Mon 08:52:25 AM 36.8360 24.2490 114° Southeast 529 609 37,000  Level FlightAware ADS-B
Mon 08:53:00 AM 36.8000 24.3500 114° Southeast 530 610 37,000  Level FlightAware ADS-B
Mon 08:53:30 AM 36.7690 24.4350 114° Southeast 530 610 37,000  Level FlightAware ADS-B
Mon 08:54:06 AM 36.7330 24.5360 114° Southeast 530 610 37,000  Level FlightAware ADS-B
Mon 08:54:43 AM 36.6980 24.6340 114° Southeast 529 609 37,000  Level FlightAware ADS-B
Mon 08:55:19 AM 36.6610 24.7370 114° Southeast 529 609 37,000  Level FlightAware ADS-B
Mon 08:55:53 AM 36.6260 24.8330 114° Southeast 528 608 37,000  Level FlightAware ADS-B
Mon 08:56:30 AM 36.5900 24.9330 114° Southeast 528 608 37,000  Level FlightAware ADS-B
Mon 08:57:02 AM 36.5570 25.0220 115° Southeast 528 608 37,000  Level FlightAware ADS-B
Mon 08:57:46 AM 36.5120 25.1460 114° Southeast 529 609 37,000  Level FlightAware ADS-B
Mon 08:58:22 AM 36.4760 25.2430 115° Southeast 529 609 37,000  Level FlightAware ADS-B
Mon 08:58:54 AM 36.4440 25.3320 114° Southeast 528 608 37,000  Level FlightAware ADS-B
Mon 08:59:30 AM 36.4070 25.4320 115° Southeast 528 608 37,000  Level FlightAware ADS-B
Mon 09:00:06 AM 36.3700 25.5310 115° Southeast 528 608 37,000  Level FlightAware ADS-B
Mon 09:00:40 AM 36.3370 25.6200 115° Southeast 528 608 37,000  Level FlightAware ADS-B
Mon 09:01:14 AM 36.3000 25.7190 115° Southeast 528 608 37,000  Level FlightAware ADS-B
Mon 09:01:48 AM 36.2660 25.8110 115° Southeast 528 608 37,000  Level FlightAware ADS-B
Mon 09:02:24 AM 36.2290 25.9090 115° Southeast 527 606 37,000  Level FlightAware ADS-B
Mon 09:03:00 AM 36.1920 26.0080 115° Southeast 527 606 37,000  Level FlightAware ADS-B
Mon 09:03:32 AM 36.1590 26.0970 115° Southeast 526 605 37,000  Level FlightAware ADS-B
Mon 09:04:12 AM 36.1180 26.2040 115° Southeast 524 603 37,000  Level FlightAware ADS-B
Mon 09:04:47 AM 36.0830 26.2990 114° Southeast 523 602 37,000  Level FlightAware ADS-B
Mon 09:05:18 AM 36.0500 26.3840 116° Southeast 522 601 37,000  Level FlightAware ADS-B
Mon 09:05:55 AM 36.0130 26.4820 115° Southeast 520 598 37,000  Level FlightAware ADS-B
Mon 09:06:32 AM 35.9740 26.5830 115° Southeast 520 598 37,000  Level FlightAware ADS-B
Mon 09:07:06 AM 35.9390 26.6750 115° Southeast 519 597 37,000  Level FlightAware ADS-B
Mon 09:07:40 AM 35.9050 26.7650 115° Southeast 520 598 37,000  Level FlightAware ADS-B
Mon 09:08:19 AM 35.8670 26.8630 116° Southeast 521 600 37,000  Level FlightAware ADS-B
Mon 09:09:17 AM 35.8100 27.0110 115° Southeast 521 600 37,000  Level FlightAware ADS-B
Mon 09:09:56 AM 35.7770 27.1000 115° Southeast 521 600 37,000  Level FlightAware ADS-B
Mon 09:10:32 AM 35.7450 27.1830 115° Southeast 521 600 37,000  Level FlightAware ADS-B
Mon 09:11:09 AM 35.7130 27.2670 115° Southeast 521 600 37,000  Level FlightAware ADS-B
Mon 09:11:45 AM 35.6820 27.3500 115° Southeast 521 600 37,000  Level FlightAware ADS-B
Mon 09:12:25 AM 35.6480 27.4410 115° Southeast 521 600 37,000  Level FlightAware ADS-B
Mon 09:13:02 AM 35.6160 27.5250 115° Southeast 521 600 37,000  Level FlightAware ADS-B
Mon 09:13:38 AM 35.5840 27.6080 115° Southeast 521 600 37,000  Level FlightAware ADS-B
Mon 09:14:15 AM 35.5520 27.6920 115° Southeast 521 600 37,000  Level FlightAware ADS-B
Mon 09:14:49 AM 35.5230 27.7700 115° Southeast 521 600 37,000  Level FlightAware ADS-B
Mon 09:15:52 AM 35.3880 28.0820 118° Southeast 523 602 37,000  Level FlightAware ADS-B
Mon 09:16:34 AM 35.3440 28.1940 116° Southeast 526 605 37,000  Level FlightAware ADS-B
Mon 09:17:10 AM 35.3040 28.2920 117° Southeast 526 605 37,000  Level FlightAware ADS-B
Mon 09:17:42 AM 35.2700 28.3780 116° Southeast 526 605 37,000  Level FlightAware ADS-B
Mon 09:18:18 AM 35.2310 28.4740 116° Southeast 527 606 37,000  Level FlightAware ADS-B
Mon 09:18:52 AM 35.1940 28.5650 116° Southeast 527 606 37,000  Level FlightAware ADS-B
Mon 09:19:27 AM 35.1580 28.6540 116° Southeast 523 602 37,000  Level FlightAware ADS-B
Mon 09:19:52 AM 35.1300 28.7230 116° Southeast 524 603 37,000  Level FlightAware ADS-B
Mon 09:20:32 AM 35.0870 28.8280 117° Southeast 523 602 37,000  Level FlightAware ADS-B
Mon 09:21:08 AM 35.0480 28.9230 117° Southeast 523 602 37,000  Level FlightAware ADS-B
Mon 09:21:43 AM 35.0130 29.0080 117° Southeast 523 602 37,000  Level FlightAware ADS-B
Mon 09:22:14 AM 34.9780 29.0930 117° Southeast 524 603 37,000  Level FlightAware ADS-B
Mon 09:22:57 AM 34.9400 29.1910 115° Southeast 524 603 37,000  Level FlightAware ADS-B
Mon 09:23:29 AM 34.8960 29.2940 117° Southeast 525 604 37,000  Level FlightAware ADS-B
Mon 09:24:13 AM 34.8450 29.4170 117° Southeast 526 605 37,000  Level FlightAware ADS-B
Mon 09:24:50 AM 34.8040 29.5140 117° Southeast 530 610 37,000  Level FlightAware ADS-B
Mon 09:25:26 AM 34.7660 29.6060 117° Southeast 532 612 37,000  Level FlightAware ADS-B
Mon 09:26:03 AM 34.7270 29.7000 117° Southeast 533 613 37,000  Level FlightAware ADS-B
Mon 09:26:36 AM 34.6860 29.7970 117° Southeast 535 616 37,000  Level FlightAware ADS-B
Mon 09:27:21 AM 34.6390 29.9090 117° Southeast 536 617 37,000  Level FlightAware ADS-B
Mon 09:28:06 AM 34.5870 30.0310 117° Southeast 538 619 37,000  Level FlightAware ADS-B
Mon 09:28:42 AM 34.5410 30.1280 120° Southeast 538 619 37,000  Level FlightAware ADS-B
Mon 09:29:17 AM 34.4980 30.2150 121° Southeast 540 621 37,000  Level FlightAware ADS-B
Mon 09:29:52 AM 34.4500 30.3140 120° Southeast 540 621 37,000  Level FlightAware ADS-B
Mon 09:30:27 AM 34.4050 30.4080 120° Southeast 537 618 37,000  Level FlightAware ADS-B
Mon 09:31:08 AM 34.3540 30.5150 120° Southeast 541 623 37,000  Level FlightAware ADS-B
Mon 09:31:43 AM 34.3100 30.6070 120° Southeast 542 624 37,000  Level FlightAware ADS-B
Mon 09:32:19 AM 34.2660 30.7000 120° Southeast 541 623 37,000  Level FlightAware ADS-B
Mon 09:32:54 AM 34.2220 30.7920 120° Southeast 540 621 37,000  Level FlightAware ADS-B
Mon 09:33:30 AM 34.1780 30.8820 121° Southeast 539 620 37,000  Level FlightAware ADS-B
Mon 09:34:10 AM 34.1270 30.9880 120° Southeast 536 617 37,000  Level FlightAware ADS-B
Mon 09:35:01 AM 34.0680 31.1100 120° Southeast 536 617 37,000  Level FlightAware ADS-B
Mon 09:35:33 AM 34.0250 31.1980 121° Southeast 534 615 37,000  Level FlightAware ADS-B
Mon 09:36:08 AM 33.9780 31.2930 121° Southeast 534 615 37,000  Level FlightAware ADS-B
Mon 09:36:44 AM 33.9320 31.3860 121° Southeast 534 615 37,000  Level FlightAware ADS-B
Mon 09:37:19 AM 33.8910 31.4690 121° Southeast 533 613 37,000  Level FlightAware ADS-B
Mon 09:37:55 AM 33.8430 31.5680 120° Southeast 533 613 37,000  Level FlightAware ADS-B
Mon 09:38:25 AM 33.8050 31.6440 121° Southeast 532 612 37,000  Level FlightAware ADS-B
Mon 09:38:56 AM 33.7670 31.7210 121° Southeast 532 612 37,000  Level FlightAware ADS-B
Mon 09:39:31 AM 33.7230 31.8110 120° Southeast 532 612 37,000  Level FlightAware ADS-B
Mon 09:40:07 AM 33.6800 31.8970 121° Southeast 531 611 37,000  Level FlightAware ADS-B
Mon 09:40:51 AM 33.6220 32.0130 121° Southeast 532 612 37,000  Level FlightAware ADS-B
Mon 09:41:22 AM 33.5820 32.0920 121° Southeast 532 612 37,000  Level FlightAware ADS-B
Mon 09:41:57 AM 33.5370 32.1810 121° Southeast 532 612 37,000  Level FlightAware ADS-B
Mon 09:42:33 AM 33.4920 32.2730 120° Southeast 532 612 37,000 -417 Level FlightAware ADS-B
Mon 09:43:09 AM 33.4480 32.3600 121° Southeast 531 611 36,500 -1,183 Descending FlightAware ADS-B
Mon 09:43:44 AM 33.4030 32.4490 121° Southeast 533 613 35,600 -1,183 Descending FlightAware ADS-B
Mon 09:44:20 AM 33.3550 32.5430 121° Southeast 529 609 35,100 -880 Descending FlightAware ADS-B
Mon 09:44:59 AM 33.3080 32.6370 121° Southeast 518 596 34,500 -892 Descending FlightAware ADS-B
Mon 09:45:34 AM 33.2630 32.7240 122° Southeast 512 589 34,000 -1,459 Descending FlightAware ADS-B
Mon 09:46:13 AM 33.2140 32.8200 121° Southeast 507 583 32,700 -1,948 Descending FlightAware ADS-B
Mon 09:46:51 AM 33.1740 32.8980 121° Southeast 504 580 31,500 -1,948 Descending FlightAware ADS-B
Mon 09:47:30 AM 33.1280 32.9870 122° Southeast 491 565 30,200 -2,189 Descending FlightAware ADS-B
Mon 09:48:05 AM 33.0800 33.0810 121° Southeast 483 556 28,800 -1,457 Descending FlightAware ADS-B
Mon 09:48:40 AM 33.0440 33.1520 121° Southeast 478 550 28,500 -1,268 Descending FlightAware ADS-B
Mon 09:49:16 AM 33.0050 33.2290 121° Southeast 480 552 27,300 -2,630 Descending FlightAware ADS-B
Mon 09:49:53 AM 32.9600 33.3130 123° Southeast 439 505 25,300 -2,720 Descending FlightAware ADS-B
Mon 09:50:31 AM 32.9190 33.3920 122° Southeast 428 493 23,900 -2,197 Descending FlightAware ADS-B
Mon 09:51:04 AM 32.8850 33.4570 122° Southeast 417 480 22,700 -2,057 Descending FlightAware ADS-B
Mon 09:51:41 AM 32.8480 33.5290 121° Southeast 405 466 21,500 -1,865 Descending FlightAware ADS-B
Mon 09:52:18 AM 32.8120 33.5980 122° Southeast 393 452 20,400 -1,886 Descending FlightAware ADS-B
Mon 09:52:51 AM 32.7800 33.6590 122° Southeast 386 444 19,300 -1,826 Descending FlightAware ADS-B
Mon 09:53:27 AM 32.7460 33.7230 122° Southeast 379 436 18,300 -1,750 Descending FlightAware ADS-B
Mon 09:54:03 AM 32.7130 33.7850 122° Southeast 371 427 17,200 -1,750 Descending FlightAware ADS-B
Mon 09:54:39 AM 32.6810 33.8470 122° Southeast 363 418 16,200 -1,588 Descending FlightAware ADS-B
Mon 09:55:11 AM 32.6520 33.9020 122° Southeast 357 411 15,400 -1,565 Descending FlightAware ADS-B
Mon 09:55:48 AM 32.6210 33.9620 122° Southeast 350 403 14,400 -1,606 Descending FlightAware ADS-B
Mon 09:56:22 AM 32.5920 34.0160 123° Southeast 343 395 13,500 -1,565 Descending FlightAware ADS-B
Mon 09:56:57 AM 32.5620 34.0730 122° Southeast 336 387 12,600 -1,521 Descending FlightAware ADS-B
Mon 09:57:33 AM 32.5320 34.1290 122° Southeast 329 379 11,700 -1,479 Descending FlightAware ADS-B
Mon 09:58:10 AM 32.4980 34.1810 128° Southeast 339 390 10,800 -1,164 Descending FlightAware ADS-B
Mon 09:58:40 AM 32.4650 34.2200 135° Southeast 337 388 10,400 -343 Descending FlightAware ADS-B
Mon 09:59:20 AM 32.4270 34.2640 136° Southeast 337 388 10,400 -822 Level FlightAware ADS-B
Mon 09:59:53 AM 32.3890 34.3080 136° Southeast 301 346 9,400 -1,714 Descending FlightAware ADS-B
Mon 10:00:09 AM 32.3740 34.3260 135° Southeast 299 344 9,000 -558 Descending FlightAware ADS-B
Mon 10:00:36 AM 32.3510 34.3520 136° Southeast 299 344 9,000 -1,200 Level FlightAware ADS-B
Mon 10:00:59 AM 32.3240 34.3830 136° Southeast 287 330 8,000 -1,224 Descending FlightAware ADS-B
Mon 10:01:25 AM 32.3030 34.4080 135° Southeast 287 330 8,000  Level FlightAware ADS-B
Mon 10:01:37 AM 32.2940 34.4190 134° Southeast 287 330 8,000  Level FlightAware ADS-B
Mon 10:01:59 AM 32.2760 34.4400 135° Southeast 287 330 8,000  Level FlightAware ADS-B
Mon 10:02:21 AM 32.2590 34.4610 134° Southeast 287 330 8,000  Level FlightAware ADS-B
Mon 10:02:45 AM 32.2390 34.4830 137° Southeast 287 330 8,000 -1,200 Level FlightAware ADS-B
Mon 10:04:41 AM 32.1610 34.6480 124° Southeast 266 306 5,200 -1,137 Descending FlightAware ADS-B
Mon 10:05:18 AM 32.1380 34.6880 124° Southeast 266 306 5,100  Descending FlightAware ADS-B
Mon 10:05:47 AM 32.1190 34.7230 123° Southeast 245 282 5,200 105 Climbing FlightAware ADS-B
Mon 10:06:15 AM 32.1040 34.7490 124° Southeast 245 282 5,200 -122 Level FlightAware ADS-B
Mon 10:06:36 AM 32.0860 34.7750 129° Southeast 238 274 5,100 -321 Descending FlightAware ADS-B
Mon 10:07:11 AM 32.0620 34.8020 136° Southeast 240 276 4,900 -500 Descending FlightAware ADS-B
Mon 10:07:36 AM 32.0790 34.7830 317° Northwest 218 251 4,600 -340 Descending FlightAware ADS-B
Mon 10:08:04 AM 32.0610 34.8020 138° Southeast 218 251 4,600 -1,418 Level FlightAware ADS-B
Mon 10:08:31 AM 32.0790 34.7830 318° Northwest 213 245 3,300 -2,143 Descending FlightAware ADS-B
Mon 10:08:46 AM 32.0090 34.8900 128° Southeast 189 217 3,100 -857 Descending FlightAware ADS-B
Mon 10:09:06 AM 32.0130 34.9090 76° East 186 214 2,800 -600 Descending FlightAware ADS-B
Mon 10:09:46 AM 32.0210 34.9430 74° East 186 214 2,500 -450 Descending FlightAware ADS-B
Mon 10:12:00 AM 32.0095 34.8769 125° Southeast  Level Estimated
Mon 10:13:00 AM 32.0095 34.8769 125° Southeast  Level Estimated
Mon 10:14:00 AM 32.0095 34.8769 125° Southeast  Level Estimated
Mon 10:15:00 AM 32.0095 34.8769 125° Southeast  Level Estimated
Mon 10:16:00 AM 32.0095 34.8769 125° Southeast  Level Estimated
Mon 10:17:00 AM 32.0095 34.8769 125° Southeast  Level Estimated
Mon 10:18:00 AM 32.0095 34.8769 125° Southeast  Level Estimated
Mon 10:19:00 AM 32.0095 34.8769 125° Southeast  Level Estimated
Mon 10:20:00 AM 32.0095 34.8769 125° Southeast  Level Estimated
Mon 10:21:00 AM 32.0095 34.8769 125° Southeast  Level Estimated

Login

Don't have an account? Register now (free) for customized features, flight alerts, and more!